sensor_id;sensor_type;location;lat;lon;timestamp;pressure;altitude;pressure_sealevel;temperature;humidity
788;BME280;16074;42.708;23.312;2022-08-21T00:00:30;143058.09;;;19.61;100.00
788;BME280;16074;42.708;23.312;2022-08-21T00:03:00;143049.63;;;19.58;100.00
788;BME280;16074;42.708;23.312;2022-08-21T00:05:31;143049.63;;;19.58;100.00
788;BME280;16074;42.708;23.312;2022-08-21T00:08:00;143047.19;;;19.57;100.00
788;BME280;16074;42.708;23.312;2022-08-21T00:10:29;143054.47;;;19.60;100.00
788;BME280;16074;42.708;23.312;2022-08-21T00:12:57;143059.31;;;19.62;100.00
788;BME280;16074;42.708;23.312;2022-08-21T00:15:28;143047.19;;;19.57;100.00
788;BME280;16074;42.708;23.312;2022-08-21T00:17:57;143027.75;;;19.49;100.00
788;BME280;16074;42.708;23.312;2022-08-21T00:20:26;143020.47;;;19.46;100.00
788;BME280;16074;42.708;23.312;2022-08-21T00:22:55;143012.00;;;19.42;100.00
788;BME280;16074;42.708;23.312;2022-08-21T00:25:24;143020.47;;;19.46;100.00
788;BME280;16074;42.708;23.312;2022-08-21T00:27:53;143014.44;;;19.43;100.00
788;BME280;16074;42.708;23.312;2022-08-21T00:30:23;143020.47;;;19.46;100.00
788;BME280;16074;42.708;23.312;2022-08-21T00:32:53;143029.00;;;19.49;100.00
788;BME280;16074;42.708;23.312;2022-08-21T00:35:24;143032.63;;;19.51;100.00
788;BME280;16074;42.708;23.312;2022-08-21T00:37:52;143039.91;;;19.54;100.00
788;BME280;16074;42.708;23.312;2022-08-21T00:40:33;143049.63;;;19.58;100.00
788;BME280;16074;42.708;23.312;2022-08-21T00:43:05;143042.31;;;19.55;100.00
788;BME280;16074;42.708;23.312;2022-08-21T00:45:34;143053.22;;;19.59;100.00
788;BME280;16074;42.708;23.312;2022-08-21T00:48:02;143042.31;;;19.55;100.00
788;BME280;16074;42.708;23.312;2022-08-21T00:50:34;143041.13;;;19.54;100.00
788;BME280;16074;42.708;23.312;2022-08-21T00:53:04;143032.63;;;19.51;100.00
788;BME280;16074;42.708;23.312;2022-08-21T00:55:35;143031.41;;;19.50;100.00
788;BME280;16074;42.708;23.312;2022-08-21T00:58:06;143026.56;;;19.48;100.00
788;BME280;16074;42.708;23.312;2022-08-21T01:00:39;142976.75;;;19.28;100.00
788;BME280;16074;42.708;23.312;2022-08-21T01:03:11;142953.72;;;19.19;100.00
788;BME280;16074;42.708;23.312;2022-08-21T01:05:41;142981.63;;;19.30;100.00
788;BME280;16074;42.708;23.312;2022-08-21T01:08:10;142946.44;;;19.16;100.00
788;BME280;16074;42.708;23.312;2022-08-21T01:10:40;142889.38;;;18.92;100.00
788;BME280;16074;42.708;23.312;2022-08-21T01:13:11;142874.81;;;18.86;100.00
788;BME280;16074;42.708;23.312;2022-08-21T01:15:43;142895.47;;;18.95;100.00
788;BME280;16074;42.708;23.312;2022-08-21T01:18:13;142916.06;;;19.03;100.00
788;BME280;16074;42.708;23.312;2022-08-21T01:20:44;142924.53;;;19.07;100.00
788;BME280;16074;42.708;23.312;2022-08-21T01:23:17;142940.34;;;19.13;100.00
788;BME280;16074;42.708;23.312;2022-08-21T01:25:46;142951.28;;;19.18;100.00
788;BME280;16074;42.708;23.312;2022-08-21T01:28:14;142963.44;;;19.23;100.00
788;BME280;16074;42.708;23.312;2022-08-21T01:30:43;142976.75;;;19.28;100.00
788;BME280;16074;42.708;23.312;2022-08-21T01:33:11;142978.00;;;19.28;100.00
788;BME280;16074;42.708;23.312;2022-08-21T01:35:39;142970.72;;;19.25;100.00
788;BME280;16074;42.708;23.312;2022-08-21T01:38:08;142985.28;;;19.31;100.00
788;BME280;16074;42.708;23.312;2022-08-21T01:40:37;142976.75;;;19.28;100.00
788;BME280;16074;42.708;23.312;2022-08-21T01:43:05;142979.19;;;19.29;100.00
788;BME280;16074;42.708;23.312;2022-08-21T01:45:33;142991.34;;;19.34;100.00
788;BME280;16074;42.708;23.312;2022-08-21T01:48:02;142993.75;;;19.35;100.00
788;BME280;16074;42.708;23.312;2022-08-21T01:50:31;142984.03;;;19.31;100.00
788;BME280;16074;42.708;23.312;2022-08-21T01:52:59;142996.19;;;19.36;100.00
788;BME280;16074;42.708;23.312;2022-08-21T01:55:27;142992.56;;;19.34;100.00
788;BME280;16074;42.708;23.312;2022-08-21T01:57:57;142969.53;;;19.25;100.00
788;BME280;16074;42.708;23.312;2022-08-21T02:00:27;142969.53;;;19.25;100.00
788;BME280;16074;42.708;23.312;2022-08-21T02:02:55;142969.53;;;19.25;100.00
788;BME280;16074;42.708;23.312;2022-08-21T02:05:24;142933.06;;;19.10;100.00
788;BME280;16074;42.708;23.312;2022-08-21T02:07:53;142958.56;;;19.21;100.00
788;BME280;16074;42.708;23.312;2022-08-21T02:10:25;142950.09;;;19.17;100.00
788;BME280;16074;42.708;23.312;2022-08-21T02:12:54;142952.53;;;19.18;100.00
788;BME280;16074;42.708;23.312;2022-08-21T02:15:23;142929.41;;;19.09;100.00
788;BME280;16074;42.708;23.312;2022-08-21T02:17:53;142916.06;;;19.03;100.00
788;BME280;16074;42.708;23.312;2022-08-21T02:20:25;142933.06;;;19.10;100.00
788;BME280;16074;42.708;23.312;2022-08-21T02:22:54;142942.81;;;19.14;100.00
788;BME280;16074;42.708;23.312;2022-08-21T02:25:24;142942.81;;;19.14;100.00
788;BME280;16074;42.708;23.312;2022-08-21T02:27:54;142948.88;;;19.17;100.00
788;BME280;16074;42.708;23.312;2022-08-21T02:30:27;142946.44;;;19.16;100.00
788;BME280;16074;42.708;23.312;2022-08-21T02:32:57;142931.81;;;19.10;100.00
788;BME280;16074;42.708;23.312;2022-08-21T02:35:26;142922.13;;;19.06;100.00
788;BME280;16074;42.708;23.312;2022-08-21T02:37:57;142890.59;;;18.93;100.00
788;BME280;16074;42.708;23.312;2022-08-21T02:40:29;142894.22;;;18.94;100.00
788;BME280;16074;42.708;23.312;2022-08-21T02:42:58;142874.81;;;18.86;100.00
788;BME280;16074;42.708;23.312;2022-08-21T02:45:28;142868.75;;;18.84;100.00
788;BME280;16074;42.708;23.312;2022-08-21T02:47:58;142848.09;;;18.75;100.00
788;BME280;16074;42.708;23.312;2022-08-21T02:50:32;142857.81;;;18.79;100.00
788;BME280;16074;42.708;23.312;2022-08-21T02:53:01;142854.19;;;18.78;100.00
788;BME280;16074;42.708;23.312;2022-08-21T02:55:30;142855.38;;;18.78;100.00
788;BME280;16074;42.708;23.312;2022-08-21T02:57:59;142861.47;;;18.81;100.00
788;BME280;16074;42.708;23.312;2022-08-21T03:00:30;142869.94;;;18.84;100.00
788;BME280;16074;42.708;23.312;2022-08-21T03:02:59;142885.75;;;18.91;100.00
788;BME280;16074;42.708;23.312;2022-08-21T03:05:28;142893.03;;;18.94;100.00
788;BME280;16074;42.708;23.312;2022-08-21T03:07:58;142905.13;;;18.99;100.00
788;BME280;16074;42.708;23.312;2022-08-21T03:10:27;142916.06;;;19.03;100.00
788;BME280;16074;42.708;23.312;2022-08-21T03:12:55;142928.22;;;19.08;100.00
788;BME280;16074;42.708;23.312;2022-08-21T03:15:24;142941.59;;;19.14;100.00
788;BME280;16074;42.708;23.312;2022-08-21T03:17:53;142946.44;;;19.16;100.00
788;BME280;16074;42.708;23.312;2022-08-21T03:20:24;142953.72;;;19.19;100.00
788;BME280;16074;42.708;23.312;2022-08-21T03:22:53;142958.56;;;19.21;100.00
788;BME280;16074;42.708;23.312;2022-08-21T03:25:23;142954.97;;;19.19;100.00
788;BME280;16074;42.708;23.312;2022-08-21T03:28:08;142971.94;;;19.26;100.00
788;BME280;16074;42.708;23.312;2022-08-21T03:30:39;142968.28;;;19.24;100.00
788;BME280;16074;42.708;23.312;2022-08-21T03:33:09;142979.19;;;19.29;100.00
788;BME280;16074;42.708;23.312;2022-08-21T03:35:42;142979.19;;;19.29;100.00
788;BME280;16074;42.708;23.312;2022-08-21T03:38:11;142967.09;;;19.24;100.00
788;BME280;16074;42.708;23.312;2022-08-21T03:40:40;142948.88;;;19.17;100.00
788;BME280;16074;42.708;23.312;2022-08-21T03:43:09;142947.69;;;19.16;100.00
788;BME280;16074;42.708;23.312;2022-08-21T03:45:38;142947.69;;;19.16;100.00
788;BME280;16074;42.708;23.312;2022-08-21T03:48:08;142936.69;;;19.12;100.00
788;BME280;16074;42.708;23.312;2022-08-21T03:50:41;142940.34;;;19.13;100.00
788;BME280;16074;42.708;23.312;2022-08-21T03:53:10;142935.50;;;19.11;100.00
788;BME280;16074;42.708;23.312;2022-08-21T03:55:44;142897.88;;;18.96;100.00
788;BME280;16074;42.708;23.312;2022-08-21T03:58:13;142903.94;;;18.98;100.00
788;BME280;16074;42.708;23.312;2022-08-21T04:00:44;142912.41;;;19.02;100.00
788;BME280;16074;42.708;23.312;2022-08-21T04:03:14;142907.53;;;19.00;100.00
788;BME280;16074;42.708;23.312;2022-08-21T04:05:43;142916.06;;;19.03;100.00
788;BME280;16074;42.708;23.312;2022-08-21T04:08:13;142913.63;;;19.02;100.00
788;BME280;16074;42.708;23.312;2022-08-21T04:10:43;142912.41;;;19.02;100.00
788;BME280;16074;42.708;23.312;2022-08-21T04:13:11;142912.41;;;19.02;100.00
788;BME280;16074;42.708;23.312;2022-08-21T04:15:41;142918.50;;;19.04;100.00
788;BME280;16074;42.708;23.312;2022-08-21T04:18:10;142934.25;;;19.11;100.00
788;BME280;16074;42.708;23.312;2022-08-21T04:20:41;142930.63;;;19.09;100.00
788;BME280;16074;42.708;23.312;2022-08-21T04:23:16;142925.78;;;19.07;100.00
788;BME280;16074;42.708;23.312;2022-08-21T04:25:50;142928.22;;;19.08;100.00
788;BME280;16074;42.708;23.312;2022-08-21T04:28:19;142944.00;;;19.15;100.00
788;BME280;16074;42.708;23.312;2022-08-21T04:30:49;142951.28;;;19.18;100.00
788;BME280;16074;42.708;23.312;2022-08-21T04:33:19;142962.25;;;19.22;100.00
788;BME280;16074;42.708;23.312;2022-08-21T04:35:49;142974.34;;;19.27;100.00
788;BME280;16074;42.708;23.312;2022-08-21T04:38:18;142981.63;;;19.30;100.00
788;BME280;16074;42.708;23.312;2022-08-21T04:40:47;142939.09;;;19.13;100.00
788;BME280;16074;42.708;23.312;2022-08-21T04:43:16;142958.56;;;19.21;100.00
788;BME280;16074;42.708;23.312;2022-08-21T04:45:46;142940.34;;;19.13;100.00
788;BME280;16074;42.708;23.312;2022-08-21T04:48:17;142948.88;;;19.17;100.00
788;BME280;16074;42.708;23.312;2022-08-21T04:50:50;142920.91;;;19.05;100.00
788;BME280;16074;42.708;23.312;2022-08-21T04:53:22;142902.75;;;18.98;100.00
788;BME280;16074;42.708;23.312;2022-08-21T04:55:54;142907.53;;;19.00;100.00
788;BME280;16074;42.708;23.312;2022-08-21T04:58:25;142936.69;;;19.12;100.00
788;BME280;16074;42.708;23.312;2022-08-21T05:00:56;142933.06;;;19.10;100.00
788;BME280;16074;42.708;23.312;2022-08-21T05:03:25;142962.25;;;19.22;100.00
788;BME280;16074;42.708;23.312;2022-08-21T05:05:55;142961.00;;;19.22;100.00
788;BME280;16074;42.708;23.312;2022-08-21T05:08:25;142980.44;;;19.29;100.00
788;BME280;16074;42.708;23.312;2022-08-21T05:10:54;142992.56;;;19.34;100.00
788;BME280;16074;42.708;23.312;2022-08-21T05:13:26;143007.13;;;19.40;100.00
788;BME280;16074;42.708;23.312;2022-08-21T05:15:55;143013.19;;;19.43;100.00
788;BME280;16074;42.708;23.312;2022-08-21T05:18:23;143001.03;;;19.38;100.00
788;BME280;16074;42.708;23.312;2022-08-21T05:20:51;143016.84;;;19.44;100.00
788;BME280;16074;42.708;23.312;2022-08-21T05:23:21;143037.47;;;19.53;100.00
788;BME280;16074;42.708;23.312;2022-08-21T05:25:49;143052.03;;;19.59;100.00
788;BME280;16074;42.708;23.312;2022-08-21T05:28:17;143083.63;;;19.72;100.00
788;BME280;16074;42.708;23.312;2022-08-21T05:30:45;143103.03;;;19.80;100.00
788;BME280;16074;42.708;23.312;2022-08-21T05:33:14;143121.25;;;19.87;100.00
788;BME280;16074;42.708;23.312;2022-08-21T05:35:42;143127.28;;;19.90;100.00
788;BME280;16074;42.708;23.312;2022-08-21T05:38:11;143134.59;;;19.93;100.00
788;BME280;16074;42.708;23.312;2022-08-21T05:40:45;143161.34;;;20.04;100.00
788;BME280;16074;42.708;23.312;2022-08-21T05:43:14;143171.06;;;20.08;100.00
788;BME280;16074;42.708;23.312;2022-08-21T05:45:42;143184.41;;;20.13;100.00
788;BME280;16074;42.708;23.312;2022-08-21T05:48:12;143212.38;;;20.25;100.00
788;BME280;16074;42.708;23.312;2022-08-21T05:50:42;143218.44;;;20.27;100.00
788;BME280;16074;42.708;23.312;2022-08-21T05:53:12;143235.44;;;20.34;100.00
788;BME280;16074;42.708;23.312;2022-08-21T05:55:41;143251.22;;;20.41;100.00
788;BME280;16074;42.708;23.312;2022-08-21T05:58:15;143276.75;;;20.51;100.00
788;BME280;16074;42.708;23.312;2022-08-21T06:00:45;143290.09;;;20.56;100.00
788;BME280;16074;42.708;23.312;2022-08-21T06:03:16;143307.13;;;20.63;100.00
788;BME280;16074;42.708;23.312;2022-08-21T06:05:45;143318.03;;;20.68;100.00
788;BME280;16074;42.708;23.312;2022-08-21T06:08:13;143322.91;;;20.70;100.00
788;BME280;16074;42.708;23.312;2022-08-21T06:10:41;143321.72;;;20.69;100.00
788;BME280;16074;42.708;23.312;2022-08-21T06:13:11;143324.13;;;20.70;100.00
788;BME280;16074;42.708;23.312;2022-08-21T06:15:40;143326.56;;;20.71;100.00
788;BME280;16074;42.708;23.312;2022-08-21T06:18:09;143326.56;;;20.71;100.00
788;BME280;16074;42.708;23.312;2022-08-21T06:20:37;143341.16;;;20.77;100.00
788;BME280;16074;42.708;23.312;2022-08-21T06:23:05;143364.28;;;20.87;100.00
788;BME280;16074;42.708;23.312;2022-08-21T06:25:34;143380.09;;;20.93;100.00
788;BME280;16074;42.708;23.312;2022-08-21T06:28:03;143375.25;;;20.91;100.00
788;BME280;16074;42.708;23.312;2022-08-21T06:30:32;143409.25;;;21.05;100.00
788;BME280;16074;42.708;23.312;2022-08-21T06:33:02;143445.72;;;21.20;100.00
788;BME280;16074;42.708;23.312;2022-08-21T06:35:31;143472.47;;;21.31;100.00
788;BME280;16074;42.708;23.312;2022-08-21T06:37:59;143508.94;;;21.46;100.00
788;BME280;16074;42.708;23.312;2022-08-21T06:40:28;143551.56;;;21.64;100.00
788;BME280;16074;42.708;23.312;2022-08-21T06:43:06;143558.84;;;21.67;100.00
788;BME280;16074;42.708;23.312;2022-08-21T06:45:35;143572.22;;;21.72;100.00
788;BME280;16074;42.708;23.312;2022-08-21T06:48:05;143589.25;;;21.79;100.00
788;BME280;16074;42.708;23.312;2022-08-21T06:50:34;143601.41;;;21.84;100.00
788;BME280;16074;42.708;23.312;2022-08-21T06:53:06;143633.03;;;21.97;100.00
788;BME280;16074;42.708;23.312;2022-08-21T06:55:35;143654.94;;;22.06;100.00
788;BME280;16074;42.708;23.312;2022-08-21T06:58:04;143657.38;;;22.07;100.00
788;BME280;16074;42.708;23.312;2022-08-21T07:00:34;143679.25;;;22.16;100.00
788;BME280;16074;42.708;23.312;2022-08-21T07:03:02;143659.81;;;22.08;100.00
788;BME280;16074;42.708;23.312;2022-08-21T07:05:32;143686.53;;;22.19;100.00
788;BME280;16074;42.708;23.312;2022-08-21T07:08:01;143699.94;;;22.24;100.00
788;BME280;16074;42.708;23.312;2022-08-21T07:10:29;143723.06;;;22.34;98.49
788;BME280;16074;42.708;23.312;2022-08-21T07:12:57;143737.72;;;22.40;99.08
788;BME280;16074;42.708;23.312;2022-08-21T07:15:28;143791.28;;;22.62;99.53
788;BME280;16074;42.708;23.312;2022-08-21T07:17:57;143829.00;;;22.77;97.14
788;BME280;16074;42.708;23.312;2022-08-21T07:20:26;143855.78;;;22.88;94.96
788;BME280;16074;42.708;23.312;2022-08-21T07:22:56;143843.59;;;22.83;90.85
788;BME280;16074;42.708;23.312;2022-08-21T07:25:27;143847.22;;;22.85;91.14
788;BME280;16074;42.708;23.312;2022-08-21T07:27:55;143880.09;;;22.98;91.80
788;BME280;16074;42.708;23.312;2022-08-21T07:30:23;143858.22;;;22.89;89.39
788;BME280;16074;42.708;23.312;2022-08-21T07:32:52;143928.84;;;23.18;91.30
788;BME280;16074;42.708;23.312;2022-08-21T07:35:21;144029.94;;;23.59;91.95
788;BME280;16074;42.708;23.312;2022-08-21T07:37:49;144093.31;;;23.85;86.60
788;BME280;16074;42.708;23.312;2022-08-21T07:40:19;144187.13;;;24.23;85.65
788;BME280;16074;42.708;23.312;2022-08-21T07:42:48;144279.84;;;24.61;81.37
788;BME280;16074;42.708;23.312;2022-08-21T07:45:20;144388.31;;;25.06;80.60
788;BME280;16074;42.708;23.312;2022-08-21T07:47:49;144456.69;;;25.34;79.04
788;BME280;16074;42.708;23.312;2022-08-21T07:50:23;144571.41;;;25.80;73.50
788;BME280;16074;42.708;23.312;2022-08-21T07:52:52;144672.72;;;26.22;74.49
788;BME280;16074;42.708;23.312;2022-08-21T07:55:22;144733.78;;;26.47;70.17
788;BME280;16074;42.708;23.312;2022-08-21T07:57:50;144802.19;;;26.74;68.22
788;BME280;16074;42.708;23.312;2022-08-21T08:00:22;144789.97;;;26.70;68.27
788;BME280;16074;42.708;23.312;2022-08-21T08:02:51;144783.84;;;26.67;66.51
788;BME280;16074;42.708;23.312;2022-08-21T08:05:24;144782.63;;;26.67;68.49
788;BME280;16074;42.708;23.312;2022-08-21T08:07:53;144754.56;;;26.55;67.68
788;BME280;16074;42.708;23.312;2022-08-21T08:10:23;144778.94;;;26.65;67.60
788;BME280;16074;42.708;23.312;2022-08-21T08:12:52;144776.50;;;26.64;66.88
788;BME280;16074;42.708;23.312;2022-08-21T08:15:23;144793.59;;;26.71;68.67
788;BME280;16074;42.708;23.312;2022-08-21T08:17:52;144755.75;;;26.56;66.96
788;BME280;16074;42.708;23.312;2022-08-21T08:32:42;144616.56;;;25.99;68.08
788;BME280;16074;42.708;23.312;2022-08-21T08:35:11;144699.59;;;26.33;67.99
788;BME280;16074;42.708;23.312;2022-08-21T08:37:40;144736.22;;;26.48;66.81
788;BME280;16074;42.708;23.312;2022-08-21T08:40:15;144737.47;;;26.48;67.24
788;BME280;16074;42.708;23.312;2022-08-21T08:42:47;144783.84;;;26.67;67.76
788;BME280;16074;42.708;23.312;2022-08-21T08:45:20;144832.69;;;26.87;66.46
788;BME280;16074;42.708;23.312;2022-08-21T08:47:54;144750.88;;;26.54;63.01
788;BME280;16074;42.708;23.312;2022-08-21T08:50:28;144598.28;;;25.91;64.20
788;BME280;16074;42.708;23.312;2022-08-21T08:53:03;144561.59;;;25.76;67.17
788;BME280;16074;42.708;23.312;2022-08-21T08:55:34;144542.06;;;25.68;67.45
788;BME280;16074;42.708;23.312;2022-08-21T08:58:03;144382.25;;;25.03;69.38
788;BME280;16074;42.708;23.312;2022-08-21T09:00:33;144415.22;;;25.17;68.87
788;BME280;16074;42.708;23.312;2022-08-21T09:03:03;144409.09;;;25.14;69.73
788;BME280;16074;42.708;23.312;2022-08-21T09:05:41;144434.75;;;25.25;69.57
788;BME280;16074;42.708;23.312;2022-08-21T09:08:39;144378.56;;;25.02;68.16
788;BME280;16074;42.708;23.312;2022-08-21T09:11:23;144444.50;;;25.29;69.05
788;BME280;16074;42.708;23.312;2022-08-21T09:13:59;144494.50;;;25.49;67.57
788;BME280;16074;42.708;23.312;2022-08-21T09:16:39;144546.97;;;25.70;66.09
788;BME280;16074;42.708;23.312;2022-08-21T09:19:32;144536.00;;;25.66;66.38
788;BME280;16074;42.708;23.312;2022-08-21T09:22:09;144460.34;;;25.35;67.74
788;BME280;16074;42.708;23.312;2022-08-21T09:24:49;144483.53;;;25.45;67.39
788;BME280;16074;42.708;23.312;2022-08-21T09:27:21;144542.06;;;25.68;67.78
788;BME280;16074;42.708;23.312;2022-08-21T09:29:52;144615.38;;;25.98;68.01
788;BME280;16074;42.708;23.312;2022-08-21T09:32:23;144639.72;;;26.08;64.47
788;BME280;16074;42.708;23.312;2022-08-21T09:35:07;144634.84;;;26.06;64.32
788;BME280;16074;42.708;23.312;2022-08-21T09:37:47;144632.47;;;26.05;65.23
788;BME280;16074;42.708;23.312;2022-08-21T09:40:27;144730.16;;;26.45;66.43
788;BME280;16074;42.708;23.312;2022-08-21T09:42:59;144813.16;;;26.79;62.14
788;BME280;16074;42.708;23.312;2022-08-21T09:45:28;144835.13;;;26.88;62.25
788;BME280;16074;42.708;23.312;2022-08-21T09:48:11;144836.38;;;26.88;60.06
788;BME280;16074;42.708;23.312;2022-08-21T09:50:41;144925.56;;;27.25;61.82
788;BME280;16074;42.708;23.312;2022-08-21T09:53:16;145006.22;;;27.58;61.72
788;BME280;16074;42.708;23.312;2022-08-21T09:55:51;145063.69;;;27.81;59.91
788;BME280;16074;42.708;23.312;2022-08-21T09:58:40;145061.25;;;27.80;56.12
788;BME280;16074;42.708;23.312;2022-08-21T10:01:13;145052.66;;;27.77;55.98
788;BME280;16074;42.708;23.312;2022-08-21T10:03:42;144928.00;;;27.26;58.63
788;BME280;16074;42.708;23.312;2022-08-21T10:06:23;144842.47;;;26.91;59.80
788;BME280;16074;42.708;23.312;2022-08-21T10:09:04;144836.38;;;26.88;59.47
788;BME280;16074;42.708;23.312;2022-08-21T10:11:33;144830.25;;;26.86;59.96
788;BME280;16074;42.708;23.312;2022-08-21T10:14:14;144738.66;;;26.49;61.71
788;BME280;16074;42.708;23.312;2022-08-21T10:16:54;144699.59;;;26.33;62.26
788;BME280;16074;42.708;23.312;2022-08-21T10:19:32;144687.38;;;26.28;63.62
788;BME280;16074;42.708;23.312;2022-08-21T10:22:13;144678.81;;;26.24;64.08
788;BME280;16074;42.708;23.312;2022-08-21T10:24:52;144666.59;;;26.19;64.09
788;BME280;16074;42.708;23.312;2022-08-21T10:27:33;144708.09;;;26.36;65.00
788;BME280;16074;42.708;23.312;2022-08-21T10:30:08;144754.56;;;26.55;64.33
788;BME280;16074;42.708;23.312;2022-08-21T10:32:52;144921.91;;;27.23;64.17
788;BME280;16074;42.708;23.312;2022-08-21T10:35:26;144997.63;;;27.54;59.50
788;BME280;16074;42.708;23.312;2022-08-21T10:38:13;145101.56;;;27.97;58.77
788;BME280;16074;42.708;23.312;2022-08-21T10:41:11;145226.31;;;28.47;57.88
788;BME280;16074;42.708;23.312;2022-08-21T10:43:50;145241.00;;;28.53;54.83
788;BME280;16074;42.708;23.312;2022-08-21T10:46:38;145286.22;;;28.72;54.92
788;BME280;16074;42.708;23.312;2022-08-21T10:49:21;145348.66;;;28.97;54.37
788;BME280;16074;42.708;23.312;2022-08-21T10:51:56;145423.28;;;29.27;55.37
788;BME280;16074;42.708;23.312;2022-08-21T10:54:39;145586.13;;;29.94;52.50
788;BME280;16074;42.708;23.312;2022-08-21T10:57:16;145779.69;;;30.72;49.84
788;BME280;16074;42.708;23.312;2022-08-21T11:00:02;146010.16;;;31.66;50.83
788;BME280;16074;42.708;23.312;2022-08-21T11:02:33;146196.53;;;32.42;47.58
788;BME280;16074;42.708;23.312;2022-08-21T11:05:08;146197.78;;;32.42;45.78
788;BME280;16074;42.708;23.312;2022-08-21T11:07:43;146194.06;;;32.41;46.07
788;BME280;16074;42.708;23.312;2022-08-21T11:10:20;146396.59;;;33.23;45.68
788;BME280;16074;42.708;23.312;2022-08-21T11:12:53;146525.53;;;33.75;42.79
788;BME280;16074;42.708;23.312;2022-08-21T11:15:28;146639.78;;;34.22;42.43
788;BME280;16074;42.708;23.312;2022-08-21T11:18:13;146636.06;;;34.20;42.11
788;BME280;16074;42.708;23.312;2022-08-21T11:20:48;146623.78;;;34.15;42.15
788;BME280;16074;42.708;23.312;2022-08-21T11:23:22;146372.03;;;33.13;42.75
788;BME280;16074;42.708;23.312;2022-08-21T11:25:58;146473.91;;;33.54;41.99
788;BME280;16074;42.708;23.312;2022-08-21T11:28:32;146423.59;;;33.34;41.65
788;BME280;16074;42.708;23.312;2022-08-21T11:31:08;146407.66;;;33.27;42.82
788;BME280;16074;42.708;23.312;2022-08-21T11:33:52;146481.28;;;33.57;42.57
788;BME280;16074;42.708;23.312;2022-08-21T11:36:31;146572.19;;;33.94;42.16
788;BME280;16074;42.708;23.312;2022-08-21T11:39:06;146601.63;;;34.06;41.87
788;BME280;16074;42.708;23.312;2022-08-21T11:41:45;146607.78;;;34.09;40.98
788;BME280;16074;42.708;23.312;2022-08-21T11:44:21;146658.16;;;34.29;41.49
788;BME280;16074;42.708;23.312;2022-08-21T11:46:57;146602.88;;;34.07;40.37
788;BME280;16074;42.708;23.312;2022-08-21T11:49:46;146688.84;;;34.41;40.23
788;BME280;16074;42.708;23.312;2022-08-21T11:52:21;146590.59;;;34.02;40.85
788;BME280;16074;42.708;23.312;2022-08-21T11:54:56;146579.56;;;33.97;39.58
788;BME280;16074;42.708;23.312;2022-08-21T11:57:31;146541.47;;;33.82;38.84
788;BME280;16074;42.708;23.312;2022-08-21T12:00:05;146510.78;;;33.69;39.63
788;BME280;16074;42.708;23.312;2022-08-21T12:02:43;146320.50;;;32.92;41.52
788;BME280;16074;42.708;23.312;2022-08-21T12:05:24;146322.94;;;32.93;42.56
788;BME280;16074;42.708;23.312;2022-08-21T12:08:10;146277.56;;;32.75;42.48
788;BME280;16074;42.708;23.312;2022-08-21T12:10:41;145950.06;;;31.42;44.77
788;BME280;16074;42.708;23.312;2022-08-21T12:13:24;145869.16;;;31.09;44.42
788;BME280;16074;42.708;23.312;2022-08-21T12:16:10;145659.63;;;30.24;46.60
788;BME280;16074;42.708;23.312;2022-08-21T12:18:39;145567.75;;;29.86;47.14
788;BME280;16074;42.708;23.312;2022-08-21T12:21:21;145521.25;;;29.67;46.56
788;BME280;16074;42.708;23.312;2022-08-21T12:24:01;145467.41;;;29.45;47.04
788;BME280;16074;42.708;23.312;2022-08-21T12:26:32;145296.03;;;28.76;48.52
788;BME280;16074;42.708;23.312;2022-08-21T12:29:12;145139.47;;;28.12;49.93
788;BME280;16074;42.708;23.312;2022-08-21T12:31:54;145118.69;;;28.03;51.04
788;BME280;16074;42.708;23.312;2022-08-21T12:34:25;145033.16;;;27.69;51.91
788;BME280;16074;42.708;23.312;2022-08-21T12:36:58;144951.25;;;27.35;52.92
788;BME280;16074;42.708;23.312;2022-08-21T12:39:31;144899.91;;;27.14;54.08
788;BME280;16074;42.708;23.312;2022-08-21T12:42:06;144915.78;;;27.21;54.16
788;BME280;16074;42.708;23.312;2022-08-21T12:44:43;144863.22;;;26.99;54.32
788;BME280;16074;42.708;23.312;2022-08-21T12:47:21;144820.47;;;26.82;55.17
788;BME280;16074;42.708;23.312;2022-08-21T12:49:56;144807.06;;;26.76;55.00
788;BME280;16074;42.708;23.312;2022-08-21T12:52:30;144785.06;;;26.68;56.01
788;BME280;16074;42.708;23.312;2022-08-21T12:55:06;144772.88;;;26.63;57.32
788;BME280;16074;42.708;23.312;2022-08-21T12:57:36;144765.53;;;26.60;56.75
788;BME280;16074;42.708;23.312;2022-08-21T13:00:10;144752.13;;;26.54;57.21
788;BME280;16074;42.708;23.312;2022-08-21T13:02:44;144758.22;;;26.57;57.42
788;BME280;16074;42.708;23.312;2022-08-21T13:05:16;144764.34;;;26.59;56.88
788;BME280;16074;42.708;23.312;2022-08-21T13:07:48;144744.78;;;26.51;57.84
788;BME280;16074;42.708;23.312;2022-08-21T13:10:21;144722.75;;;26.42;57.99
788;BME280;16074;42.708;23.312;2022-08-21T13:12:52;144716.63;;;26.40;58.36
788;BME280;16074;42.708;23.312;2022-08-21T13:15:26;144748.44;;;26.53;58.00
788;BME280;16074;42.708;23.312;2022-08-21T13:18:00;144769.22;;;26.61;57.26
788;BME280;16074;42.708;23.312;2022-08-21T13:20:32;144775.31;;;26.64;57.44
788;BME280;16074;42.708;23.312;2022-08-21T13:23:02;144752.13;;;26.54;56.57
788;BME280;16074;42.708;23.312;2022-08-21T13:25:34;144744.78;;;26.51;55.78
788;BME280;16074;42.708;23.312;2022-08-21T13:28:06;144752.13;;;26.54;57.67
788;BME280;16074;42.708;23.312;2022-08-21T13:30:42;144758.22;;;26.57;56.22
788;BME280;16074;42.708;23.312;2022-08-21T13:33:12;144788.72;;;26.69;57.63